Time;durP1;ratioP1;P1;durP2;ratioP2;P2;SDS_P1;SDS_P2;PMS_P1;PMS_P2;Temp;Humidity;BMP_temperature;BMP_pressure;BME280_temperature;BME280_humidity;BME280_pressure;Samples;Min_cycle;Max_cycle;Signal;HPM_P1;HPM_P2
2023/08/18 00:00:59;;;;;;;10.88;6.20;;;;;;;15.79;100.00;96101.72;2065830;28;20046;-58
2023/08/18 00:02:00;;;;;;;8.65;6.20;;;;;;;15.77;100.00;96098.34;2065841;28;20042;-59
2023/08/18 00:03:01;;;;;;;8.98;5.68;;;;;;;15.78;100.00;96100.03;2065884;28;20491;-59
2023/08/18 00:04:02;;;;;;;9.52;6.60;;;;;;;15.78;100.00;96103.50;2065266;28;20062;-59
2023/08/18 00:05:04;;;;;;;9.73;6.65;;;;;;;15.80;100.00;96100.78;2065774;28;20054;-59
2023/08/18 00:06:05;;;;;;;10.75;6.25;;;;;;;15.81;100.00;96099.84;2065183;28;20054;-59
2023/08/18 00:07:06;;;;;;;7.55;6.25;;;;;;;15.89;100.00;96094.94;2065975;28;20057;-59
2023/08/18 00:08:07;;;;;;;8.35;6.07;;;;;;;15.94;100.00;96095.47;2065680;28;20442;-59
2023/08/18 00:09:09;;;;;;;10.02;6.30;;;;;;;15.91;100.00;96094.84;2065417;28;20054;-59
2023/08/18 00:10:10;;;;;;;9.85;6.28;;;;;;;15.96;99.88;96092.72;2065470;28;20057;-59
2023/08/18 00:11:11;;;;;;;11.02;5.93;;;;;;;15.91;99.93;96087.81;2065865;28;20043;-59
2023/08/18 00:12:12;;;;;;;10.52;6.57;;;;;;;15.94;100.00;96098.06;2066038;28;20478;-59
2023/08/18 00:13:13;;;;;;;9.73;6.72;;;;;;;15.91;100.00;96087.81;2065772;28;20050;-59
2023/08/18 00:14:14;;;;;;;8.75;6.05;;;;;;;15.91;100.00;96090.44;2065676;28;20046;-58
2023/08/18 00:15:16;;;;;;;8.30;5.90;;;;;;;15.90;100.00;96093.97;2065894;28;20057;-59
2023/08/18 00:16:17;;;;;;;13.77;7.68;;;;;;;15.86;100.00;96092.50;2065408;28;20054;-58
2023/08/18 00:17:18;;;;;;;11.43;7.50;;;;;;;15.84;100.00;96094.38;2065149;28;20050;-59
2023/08/18 00:18:19;;;;;;;11.00;7.22;;;;;;;15.84;100.00;96089.16;2065013;28;20061;-59
2023/08/18 00:19:21;;;;;;;10.95;6.93;;;;;;;15.80;100.00;96083.28;2065755;28;20057;-59
2023/08/18 00:20:22;;;;;;;11.35;6.90;;;;;;;15.84;100.00;96091.78;2065197;28;20066;-59
2023/08/18 00:21:23;;;;;;;14.52;6.38;;;;;;;15.83;100.00;96083.09;2065367;28;20517;-58
2023/08/18 00:22:24;;;;;;;10.45;6.45;;;;;;;15.89;100.00;96092.31;2065860;28;20058;-59
2023/08/18 00:23:26;;;;;;;11.35;6.40;;;;;;;15.77;100.00;96078.25;2065718;28;20058;-59
2023/08/18 00:24:27;;;;;;;12.07;6.63;;;;;;;15.82;100.00;96089.28;2056692;28;20155;-59
2023/08/18 00:25:28;;;;;;;10.82;6.35;;;;;;;15.81;100.00;96090.19;2057087;28;20407;-59
2023/08/18 00:26:29;;;;;;;11.15;6.80;;;;;;;15.87;100.00;96089.78;2065820;28;20073;-59
2023/08/18 00:27:30;;;;;;;10.10;6.90;;;;;;;15.82;100.00;96077.94;2065065;28;20070;-59
2023/08/18 00:28:31;;;;;;;9.43;6.15;;;;;;;15.76;100.00;96081.81;2056774;28;20122;-59
2023/08/18 00:29:32;;;;;;;9.95;6.90;;;;;;;15.77;100.00;96080.03;2056726;28;20063;-59
2023/08/18 00:30:33;;;;;;;7.90;5.88;;;;;;;15.81;100.00;96073.66;2057078;28;20055;-59
2023/08/18 00:31:35;;;;;;;9.20;7.50;;;;;;;15.78;100.00;96073.84;2056605;28;20055;-59
2023/08/18 00:32:36;;;;;;;7.82;6.13;;;;;;;15.73;100.00;96070.72;2057130;28;20062;-60
2023/08/18 00:33:37;;;;;;;9.70;6.88;;;;;;;15.71;100.00;96067.34;2065345;28;20055;-59
2023/08/18 00:34:38;;;;;;;15.13;7.38;;;;;;;15.74;100.00;96064.50;2056992;28;20055;-59
2023/08/18 00:35:39;;;;;;;10.18;6.82;;;;;;;15.76;100.00;96057.41;2057030;28;20054;-59
2023/08/18 00:36:40;;;;;;;10.30;7.53;;;;;;;15.83;100.00;96056.06;2065299;28;20046;-59
2023/08/18 00:37:42;;;;;;;11.43;6.88;;;;;;;15.79;100.00;96055.41;2056902;28;20134;-59
2023/08/18 00:38:43;;;;;;;9.98;7.15;;;;;;;15.81;100.00;96052.69;2056733;28;20074;-59
2023/08/18 00:39:44;;;;;;;10.70;6.97;;;;;;;15.91;100.00;96050.31;2056995;28;20062;-60
2023/08/18 00:40:45;;;;;;;11.10;7.47;;;;;;;15.87;100.00;96052.28;2056720;28;20059;-59
2023/08/18 00:41:47;;;;;;;10.50;6.40;;;;;;;15.85;100.00;96054.16;2065693;28;20058;-59
2023/08/18 00:42:48;;;;;;;11.40;7.05;;;;;;;15.80;100.00;96053.66;2056575;28;20507;-59
2023/08/18 00:43:49;;;;;;;10.23;6.80;;;;;;;15.70;100.00;96044.75;2056480;28;20062;-60
2023/08/18 00:44:50;;;;;;;10.88;7.40;;;;;;;15.74;100.00;96048.81;2065525;28;20061;-59
2023/08/18 00:45:52;;;;;;;11.20;7.50;;;;;;;15.63;100.00;96039.84;2065611;28;20058;-59
2023/08/18 00:46:53;;;;;;;10.95;6.70;;;;;;;15.70;100.00;96049.97;2057525;28;20046;-59
2023/08/18 00:47:54;;;;;;;11.48;7.25;;;;;;;15.70;100.00;96049.97;2057187;28;20058;-59
2023/08/18 00:48:58;;;;;;;12.93;7.85;;;;;;;15.60;100.00;96040.06;2064969;28;20505;-59
2023/08/18 00:49:59;;;;;;;11.63;7.60;;;;;;;15.71;100.00;96054.25;2064915;28;20533;-59
2023/08/18 00:51:00;;;;;;;11.40;7.40;;;;;;;15.73;100.00;96049.75;2057087;28;20046;-59
2023/08/18 00:52:01;;;;;;;11.23;6.50;;;;;;;15.69;100.00;96048.28;2056786;28;20054;-59
2023/08/18 00:53:02;;;;;;;12.45;7.75;;;;;;;15.66;100.00;96046.66;2049429;28;20542;-59
2023/08/18 00:54:04;;;;;;;11.98;7.50;;;;;;;15.66;100.00;96044.03;2057457;28;20047;-59
2023/08/18 00:55:06;;;;;;;10.88;8.02;;;;;;;15.66;100.00;96050.16;2064695;28;20154;-60
2023/08/18 00:56:08;;;;;;;10.27;8.10;;;;;;;15.58;100.00;96041.09;2049168;29;20051;-59
2023/08/18 00:57:09;;;;;;;27.92;9.27;;;;;;;15.60;100.00;96045.28;2041185;29;20059;-60
2023/08/18 00:58:11;;;;;;;13.02;8.40;;;;;;;15.59;100.00;96046.25;2048956;29;20058;-60
2023/08/18 00:59:13;;;;;;;11.20;8.77;;;;;;;15.51;100.00;96035.44;2048647;28;20055;-60
2023/08/18 01:00:14;;;;;;;12.05;9.25;;;;;;;15.55;100.00;96050.00;2056698;28;20534;-60
2023/08/18 01:01:15;;;;;;;10.57;8.77;;;;;;;15.50;100.00;96044.22;2056430;28;20058;-59
2023/08/18 01:02:17;;;;;;;16.08;9.90;;;;;;;15.40;100.00;96043.19;2049000;28;20458;-59
2023/08/18 01:03:18;;;;;;;13.40;9.98;;;;;;;15.38;100.00;96045.06;2049536;28;20051;-60
2023/08/18 01:04:20;;;;;;;15.13;9.52;;;;;;;15.37;100.00;96048.59;2040907;29;20055;-59
2023/08/18 01:05:21;;;;;;;12.20;8.68;;;;;;;15.39;100.00;96046.72;2041272;29;20547;-59
2023/08/18 01:06:22;;;;;;;11.32;9.27;;;;;;;15.41;100.00;96050.06;2049037;29;20055;-59
2023/08/18 01:07:23;;;;;;;17.60;10.18;;;;;;;15.40;100.00;96046.63;2056589;28;20047;-59
2023/08/18 01:08:24;;;;;;;13.68;10.45;;;;;;;15.39;100.00;96041.47;2065525;28;20501;-59
2023/08/18 01:09:25;;;;;;;14.65;10.20;;;;;;;15.32;100.00;96033.22;2064907;28;20062;-59
2023/08/18 01:10:28;;;;;;;15.60;10.35;;;;;;;15.28;100.00;96029.09;2057048;28;20542;-59
2023/08/18 01:11:50;;;;;;;14.02;10.25;;;;;;;15.28;100.00;96039.56;2041294;29;20058;-59
2023/08/18 01:13:01;;;;;;;12.57;9.60;;;;;;;15.22;100.00;96038.19;2046584;28;20534;-59
2023/08/18 01:14:33;;;;;;;16.92;10.63;;;;;;;15.12;100.00;96025.81;2050163;28;20062;-59
2023/08/18 01:15:35;;;;;;;15.32;12.07;;;;;;;15.12;100.00;96036.28;2045168;28;20055;-59
2023/08/18 01:16:37;;;;;;;17.40;11.35;;;;;;;15.08;100.00;96037.44;2036944;29;20055;-60
2023/08/18 01:17:42;;;;;;;17.38;11.77;;;;;;;15.05;100.00;96037.59;2034696;29;20524;-59
2023/08/18 01:18:44;;;;;;;15.05;11.70;;;;;;;15.04;100.00;96038.53;2044107;28;20052;-60
2023/08/18 01:19:45;;;;;;;15.65;11.60;;;;;;;15.03;100.00;96035.09;2050470;28;20047;-59
2023/08/18 01:20:46;;;;;;;16.73;11.05;;;;;;;14.97;100.00;96031.09;2050433;28;20059;-59
2023/08/18 01:21:49;;;;;;;16.88;11.02;;;;;;;14.95;100.00;96019.06;2057827;28;20057;-59
2023/08/18 01:22:56;;;;;;;14.45;10.88;;;;;;;14.99;100.00;96025.75;2035313;29;20107;-59
2023/08/18 01:24:01;;;;;;;14.95;11.75;;;;;;;15.01;100.00;96031.72;2052303;28;20056;-59
2023/08/18 01:25:03;;;;;;;14.57;10.43;;;;;;;14.98;100.00;96027.53;2057855;28;20063;-59
2023/08/18 01:26:04;;;;;;;14.90;11.43;;;;;;;14.97;100.00;96020.66;2058387;28;20051;-59
2023/08/18 01:27:06;;;;;;;14.13;11.90;;;;;;;14.97;100.00;96020.66;2067292;28;20057;-59
2023/08/18 01:28:07;;;;;;;16.55;10.50;;;;;;;14.99;100.00;96028.38;2058136;28;20050;-59
2023/08/18 01:29:08;;;;;;;18.13;10.80;;;;;;;14.98;100.00;96014.47;2050294;29;20062;-59
2023/08/18 01:30:10;;;;;;;16.58;10.95;;;;;;;14.98;100.00;96016.25;2058352;28;20054;-59
2023/08/18 01:31:14;;;;;;;14.27;10.43;;;;;;;14.99;100.00;96023.16;2058588;28;20059;-59
2023/08/18 01:32:15;;;;;;;12.30;10.15;;;;;;;14.95;100.00;96016.44;2065496;28;20050;-59
2023/08/18 01:33:49;;;;;;;13.68;10.05;;;;;;;14.95;100.00;96014.66;2058265;28;20061;-59
2023/08/18 01:34:50;;;;;;;16.38;10.82;;;;;;;14.94;100.00;96013.00;2058794;28;20054;-59
2023/08/18 01:35:52;;;;;;;15.68;11.02;;;;;;;14.92;100.00;96012.25;2050013;29;20059;-59
2023/08/18 01:36:53;;;;;;;11.95;10.25;;;;;;;14.94;100.00;96009.53;2050560;28;20058;-60
2023/08/18 01:37:54;;;;;;;17.00;11.07;;;;;;;14.87;100.00;96003.88;2066275;28;20077;-59
2023/08/18 01:38:57;;;;;;;15.35;10.60;;;;;;;14.88;100.00;96013.38;2058195;28;20102;-59
2023/08/18 01:39:58;;;;;;;14.68;9.75;;;;;;;14.87;100.00;96010.88;2050205;28;20051;-59
2023/08/18 01:40:59;;;;;;;13.80;10.43;;;;;;;14.88;100.00;96015.16;2050359;28;20059;-59
2023/08/18 01:42:01;;;;;;;13.32;10.35;;;;;;;14.76;100.00;95999.31;2042450;29;20056;-59
2023/08/18 01:43:03;;;;;;;16.67;10.57;;;;;;;14.82;100.00;96020.78;2042733;28;20405;-60
2023/08/18 01:44:07;;;;;;;15.68;11.00;;;;;;;14.73;100.00;96012.59;2041737;29;20440;-60
2023/08/18 01:45:11;;;;;;;16.92;11.40;;;;;;;14.73;100.00;96015.22;2050695;28;20070;-60
2023/08/18 01:46:12;;;;;;;15.30;10.48;;;;;;;14.73;100.00;96012.59;2066980;28;20061;-60
2023/08/18 01:47:13;;;;;;;13.23;10.63;;;;;;;14.67;100.00;96007.72;2066171;28;20058;-60
2023/08/18 01:48:14;;;;;;;16.10;10.25;;;;;;;14.74;100.00;96014.25;2066769;28;20046;-59
2023/08/18 01:49:15;;;;;;;17.38;11.25;;;;;;;14.75;100.00;96004.63;2066617;28;20407;-59
2023/08/18 01:50:16;;;;;;;15.50;10.70;;;;;;;14.74;100.00;96005.59;2066518;28;20058;-59
2023/08/18 01:51:17;;;;;;;14.95;10.40;;;;;;;14.78;100.00;96018.38;2058062;28;20051;-59
2023/08/18 01:52:18;;;;;;;12.45;9.07;;;;;;;14.81;100.00;96013.84;2058395;28;20051;-59
2023/08/18 01:53:20;;;;;;;14.82;10.13;;;;;;;14.81;100.00;96012.09;2067047;28;20411;-59
2023/08/18 01:54:21;;;;;;;14.00;9.77;;;;;;;14.80;100.00;96018.25;2058400;28;20534;-59
2023/08/18 01:55:22;;;;;;;17.63;10.60;;;;;;;14.75;100.00;96010.72;2050259;29;20078;-59
2023/08/18 01:56:23;;;;;;;15.05;10.18;;;;;;;14.75;100.00;96017.72;2050132;29;20062;-59
2023/08/18 01:57:24;;;;;;;14.75;9.95;;;;;;;14.71;100.00;96014.47;2049221;29;20512;-59
2023/08/18 01:58:26;;;;;;;12.63;10.40;;;;;;;14.68;100.00;96019.88;2050250;28;20099;-59
2023/08/18 01:59:27;;;;;;;18.88;11.75;;;;;;;14.67;100.00;96017.34;2057901;28;20065;-59
2023/08/18 02:00:28;;;;;;;19.25;12.60;;;;;;;14.58;100.00;96002.25;2058421;28;20078;-59
2023/08/18 02:01:29;;;;;;;16.67;11.32;;;;;;;14.61;100.00;96015.97;2058163;28;20050;-59
2023/08/18 02:02:30;;;;;;;17.02;12.18;;;;;;;14.59;100.00;96010.00;2066535;28;20062;-58
2023/08/18 02:03:31;;;;;;;18.33;12.43;;;;;;;14.56;100.00;96011.03;2066355;28;20054;-59
2023/08/18 02:04:32;;;;;;;18.13;12.10;;;;;;;14.54;100.00;96017.28;2066746;28;20411;-59
2023/08/18 02:05:37;;;;;;;15.70;11.85;;;;;;;14.52;100.00;96009.56;2057809;28;20068;-58
2023/08/18 02:06:38;;;;;;;14.90;11.60;;;;;;;14.50;100.00;96007.94;2057755;28;20058;-59
2023/08/18 02:07:39;;;;;;;17.38;12.52;;;;;;;14.48;100.00;96012.41;2065370;28;20062;-58
2023/08/18 02:08:40;;;;;;;17.85;13.00;;;;;;;14.48;100.00;96007.19;2067092;28;20054;-59
2023/08/18 02:09:42;;;;;;;18.15;12.20;;;;;;;14.47;100.00;96005.53;2058062;28;20554;-59
2023/08/18 02:10:44;;;;;;;15.98;11.75;;;;;;;14.48;100.00;96001.97;2058424;28;20442;-59
2023/08/18 02:11:45;;;;;;;16.65;12.93;;;;;;;14.47;100.00;96006.34;2066427;28;20054;-59
2023/08/18 02:12:46;;;;;;;15.00;10.05;;;;;;;14.48;100.00;96001.97;2066240;28;20054;-59
2023/08/18 02:13:47;;;;;;;16.52;11.55;;;;;;;14.47;100.00;96003.75;2058212;28;20071;-59
2023/08/18 02:14:49;;;;;;;14.13;11.63;;;;;;;14.46;100.00;95996.84;2058020;28;20503;-59
2023/08/18 02:15:50;;;;;;;13.70;11.05;;;;;;;14.53;100.00;95999.94;2066010;28;20062;-58
2023/08/18 02:16:52;;;;;;;12.85;10.25;;;;;;;14.51;100.00;95996.53;2066630;28;20065;-59
2023/08/18 02:17:53;;;;;;;14.90;11.95;;;;;;;14.50;100.00;95995.69;2066810;28;20394;-59
2023/08/18 02:18:54;;;;;;;15.52;11.48;;;;;;;14.49;100.00;95993.22;2066278;28;20054;-59
2023/08/18 02:19:58;;;;;;;13.80;10.68;;;;;;;14.47;100.00;95995.91;2066722;28;20081;-59
2023/08/18 02:21:02;;;;;;;17.23;10.93;;;;;;;14.47;100.00;95993.28;2066844;28;20061;-59
2023/08/18 02:22:03;;;;;;;19.00;11.10;;;;;;;14.40;100.00;95978.09;2057037;28;20519;-59
2023/08/18 02:23:05;;;;;;;17.90;11.32;;;;;;;14.42;100.00;95984.91;2057778;28;20054;-58
2023/08/18 02:24:06;;;;;;;16.00;11.75;;;;;;;14.42;100.00;95995.34;2066672;28;20081;-60
2023/08/18 02:25:09;;;;;;;17.77;11.82;;;;;;;14.42;100.00;95986.69;2057940;28;20074;-59
2023/08/18 02:26:10;;;;;;;16.85;11.60;;;;;;;14.43;100.00;95997.00;2049875;29;20047;-59
2023/08/18 02:27:11;;;;;;;16.67;11.57;;;;;;;14.44;100.00;95990.03;2057584;28;20050;-59
2023/08/18 02:28:14;;;;;;;14.45;11.80;;;;;;;14.43;100.00;95988.34;2064495;28;20499;-59
2023/08/18 02:29:15;;;;;;;20.60;12.70;;;;;;;14.43;100.00;95993.56;2066635;28;20498;-59
2023/08/18 02:30:17;;;;;;;14.88;11.65;;;;;;;14.41;100.00;95990.25;2065958;28;20065;-59
2023/08/18 02:31:18;;;;;;;14.02;10.20;;;;;;;14.37;100.00;95984.34;2066196;28;20465;-59
2023/08/18 02:32:19;;;;;;;14.25;11.05;;;;;;;14.41;100.00;95990.25;2057961;28;20051;-60
2023/08/18 02:33:20;;;;;;;16.25;11.07;;;;;;;14.42;100.00;95989.28;2058098;28;20066;-60
2023/08/18 02:34:22;;;;;;;16.60;10.85;;;;;;;14.45;100.00;95992.53;2057343;28;20085;-59
2023/08/18 02:35:23;;;;;;;13.18;10.30;;;;;;;14.45;100.00;95992.53;2057883;28;20563;-59
2023/08/18 02:36:24;;;;;;;15.85;10.43;;;;;;;14.44;100.00;95985.66;2065620;28;20050;-60
2023/08/18 02:37:25;;;;;;;13.32;11.00;;;;;;;14.45;100.00;95989.94;2065888;28;20051;-59
2023/08/18 02:38:27;;;;;;;18.42;11.40;;;;;;;14.44;100.00;95982.19;2066671;28;20051;-59
2023/08/18 02:39:28;;;;;;;14.13;10.10;;;;;;;14.42;100.00;95994.50;2066329;28;20058;-59
2023/08/18 02:40:29;;;;;;;17.55;10.65;;;;;;;14.42;100.00;95990.13;2066472;28;20394;-59
2023/08/18 02:41:30;;;;;;;11.50;9.40;;;;;;;14.44;100.00;95987.44;2057987;28;20062;-59
2023/08/18 02:42:33;;;;;;;13.52;10.13;;;;;;;14.47;100.00;95989.84;2057193;28;20051;-59
2023/08/18 02:43:34;;;;;;;14.68;10.15;;;;;;;14.46;100.00;95977.69;2066565;28;20102;-59
2023/08/18 02:44:35;;;;;;;13.25;10.13;;;;;;;14.44;100.00;95984.81;2057598;28;20055;-59
2023/08/18 02:45:37;;;;;;;14.23;10.10;;;;;;;14.41;100.00;95982.41;2057860;28;20435;-59
2023/08/18 02:46:38;;;;;;;13.73;9.23;;;;;;;14.41;100.00;95978.00;2065490;28;20062;-60
2023/08/18 02:47:39;;;;;;;12.32;9.07;;;;;;;14.42;100.00;95981.44;2057638;28;20059;-59
2023/08/18 02:48:40;;;;;;;13.55;10.30;;;;;;;14.43;100.00;95975.28;2057914;28;20069;-60
2023/08/18 02:49:41;;;;;;;14.02;9.98;;;;;;;14.40;100.00;95981.53;2066505;28;20058;-60
2023/08/18 02:50:42;;;;;;;15.18;10.63;;;;;;;14.38;100.00;95975.59;2066573;28;20081;-59
2023/08/18 02:51:43;;;;;;;12.60;10.55;;;;;;;14.37;100.00;95978.28;2065571;28;20376;-60
2023/08/18 02:52:44;;;;;;;14.23;10.48;;;;;;;14.31;100.00;95977.72;2066466;28;20394;-60
2023/08/18 02:53:48;;;;;;;14.82;10.40;;;;;;;14.30;100.00;95978.69;2066326;28;20054;-59
2023/08/18 02:54:49;;;;;;;14.52;10.60;;;;;;;14.30;100.00;95975.19;2066448;28;20069;-60
2023/08/18 02:55:53;;;;;;;14.68;11.25;;;;;;;14.34;100.00;95974.91;2066460;28;20051;-60
2023/08/18 02:56:55;;;;;;;14.93;10.68;;;;;;;14.33;100.00;95975.88;2066284;28;20073;-59
2023/08/18 02:57:56;;;;;;;14.52;11.02;;;;;;;14.33;100.00;95980.25;2057191;28;20147;-59
2023/08/18 02:58:58;;;;;;;14.13;10.75;;;;;;;14.34;100.00;95985.38;2057609;28;20054;-59
2023/08/18 02:59:59;;;;;;;16.50;10.43;;;;;;;14.32;100.00;95979.41;2066353;28;20050;-59
2023/08/18 03:01:03;;;;;;;15.30;11.38;;;;;;;14.31;100.00;95980.34;2065851;28;20402;-59
2023/08/18 03:02:04;;;;;;;13.27;10.15;;;;;;;14.36;100.00;95977.44;2065730;28;20050;-60
2023/08/18 03:03:05;;;;;;;13.60;10.63;;;;;;;14.33;100.00;95983.72;2065036;28;20054;-60
2023/08/18 03:04:06;;;;;;;16.05;11.15;;;;;;;14.27;100.00;95976.25;2065117;28;20054;-60
2023/08/18 03:05:08;;;;;;;13.48;10.30;;;;;;;14.19;100.00;95980.25;2065493;28;20057;-59
2023/08/18 03:06:09;;;;;;;11.82;9.55;;;;;;;14.17;100.00;95976.94;2057270;28;20544;-60
2023/08/18 03:07:10;;;;;;;13.57;10.88;;;;;;;14.09;100.00;95980.00;2057319;28;20050;-60
2023/08/18 03:08:12;;;;;;;18.60;11.63;;;;;;;14.09;100.00;95974.78;2066111;28;20057;-59
2023/08/18 03:09:13;;;;;;;14.70;11.82;;;;;;;14.15;100.00;95971.78;2057672;28;20055;-59
2023/08/18 03:10:14;;;;;;;14.77;11.38;;;;;;;14.14;100.00;95977.94;2057689;28;20057;-60
2023/08/18 03:11:15;;;;;;;11.98;10.32;;;;;;;14.21;100.00;95981.00;2057662;28;20055;-59
2023/08/18 03:12:16;;;;;;;16.65;9.35;;;;;;;14.32;100.00;95974.16;2066233;28;20062;-59
2023/08/18 03:13:17;;;;;;;18.42;10.30;;;;;;;14.36;100.00;95972.22;2057524;28;20483;-59
2023/08/18 03:14:18;;;;;;;14.38;9.63;;;;;;;14.38;100.00;95978.19;2049234;29;20055;-59
2023/08/18 03:15:20;;;;;;;13.55;10.05;;;;;;;14.43;100.00;95977.91;2057880;28;20059;-60
2023/08/18 03:16:22;;;;;;;14.20;10.88;;;;;;;14.44;100.00;95977.81;2066226;28;20061;-59
2023/08/18 03:17:23;;;;;;;14.13;10.00;;;;;;;14.42;100.00;95976.22;2066225;28;20505;-59
2023/08/18 03:18:24;;;;;;;12.43;10.32;;;;;;;14.40;100.00;95970.25;2066256;28;20062;-59
2023/08/18 03:19:25;;;;;;;12.98;9.93;;;;;;;14.40;100.00;95971.09;2057510;28;20058;-59
2023/08/18 03:20:26;;;;;;;12.15;10.07;;;;;;;14.37;100.00;95975.66;2057473;28;20055;-59
2023/08/18 03:21:27;;;;;;;15.68;11.05;;;;;;;14.34;100.00;95977.53;2066153;28;20077;-60
2023/08/18 03:22:28;;;;;;;13.55;10.45;;;;;;;14.23;100.00;95966.91;2057806;28;20054;-60
2023/08/18 03:23:29;;;;;;;15.88;10.85;;;;;;;14.24;100.00;95971.19;2057497;28;20059;-60
2023/08/18 03:24:31;;;;;;;14.85;11.00;;;;;;;14.23;100.00;95971.31;2056739;28;20051;-60
2023/08/18 03:25:32;;;;;;;15.90;11.43;;;;;;;14.20;100.00;95967.13;2049490;29;20059;-60
2023/08/18 03:26:33;;;;;;;15.27;11.25;;;;;;;14.18;100.00;95974.19;2057070;28;20415;-60
2023/08/18 03:27:34;;;;;;;14.50;11.23;;;;;;;14.17;100.00;95969.09;2057466;28;20058;-59
2023/08/18 03:28:36;;;;;;;13.43;10.80;;;;;;;14.14;100.00;95970.13;2057409;28;20054;-60
2023/08/18 03:29:37;;;;;;;16.63;11.35;;;;;;;14.15;100.00;95971.78;2066249;28;20058;-59
2023/08/18 03:30:38;;;;;;;15.15;11.80;;;;;;;14.15;100.00;95974.41;2048835;29;20068;-59
2023/08/18 03:31:40;;;;;;;15.55;10.75;;;;;;;14.18;100.00;95978.59;2042168;28;20467;-59
2023/08/18 03:32:42;;;;;;;13.70;11.95;;;;;;;14.19;100.00;95978.47;2056775;28;20514;-60
2023/08/18 03:33:43;;;;;;;17.33;11.32;;;;;;;14.18;100.00;95979.44;2066184;28;20054;-60
2023/08/18 03:34:48;;;;;;;16.77;11.77;;;;;;;14.11;100.00;95978.13;2056797;28;20054;-60
2023/08/18 03:35:49;;;;;;;17.75;11.93;;;;;;;14.12;100.00;95983.25;2057489;28;20054;-60
2023/08/18 03:36:50;;;;;;;18.73;12.38;;;;;;;14.06;100.00;95981.03;2064954;28;20056;-60
2023/08/18 03:37:51;;;;;;;14.65;11.38;;;;;;;14.00;100.00;95985.78;2064931;28;20062;-60
2023/08/18 03:38:52;;;;;;;15.57;11.88;;;;;;;13.96;100.00;95984.28;2065485;28;20046;-60
2023/08/18 03:39:54;;;;;;;16.95;12.93;;;;;;;13.88;100.00;95967.31;2065290;28;20514;-60
2023/08/18 03:41:01;;;;;;;15.38;12.05;;;;;;;13.97;100.00;95989.41;2057329;28;20062;-60
2023/08/18 03:42:03;;;;;;;20.30;12.98;;;;;;;13.95;100.00;95982.59;2050400;28;20063;-60
2023/08/18 03:43:04;;;;;;;16.80;13.23;;;;;;;14.02;100.00;95994.34;2057177;28;20055;-59
2023/08/18 03:44:06;;;;;;;18.70;12.30;;;;;;;14.06;100.00;95986.25;2048879;28;20051;-60
2023/08/18 03:45:07;;;;;;;15.63;12.05;;;;;;;14.09;100.00;95978.22;2048702;29;20051;-59
2023/08/18 03:46:22;;;;;;;18.67;12.50;;;;;;;14.16;100.00;95983.91;2049334;28;20505;-60
2023/08/18 03:47:25;;;;;;;18.75;12.95;;;;;;;14.16;100.00;95988.28;2043311;29;20599;-59
2023/08/18 03:48:27;;;;;;;15.13;12.35;;;;;;;14.12;100.00;95975.41;2041473;28;20062;-60
2023/08/18 03:49:29;;;;;;;17.05;12.23;;;;;;;14.18;100.00;95987.25;2049030;28;20051;-60
2023/08/18 03:50:31;;;;;;;19.83;12.77;;;;;;;14.11;100.00;95980.72;2057584;28;20059;-60
2023/08/18 03:51:33;;;;;;;18.17;12.60;;;;;;;14.17;100.00;95987.38;2056863;28;20058;-60
2023/08/18 03:52:34;;;;;;;15.57;11.95;;;;;;;14.12;100.00;95990.25;2057275;28;20051;-60
2023/08/18 03:53:37;;;;;;;16.27;12.70;;;;;;;14.09;100.00;95990.44;2057531;28;20480;-60
2023/08/18 03:54:39;;;;;;;17.30;12.02;;;;;;;14.11;100.00;95991.16;2049465;28;20059;-60
2023/08/18 03:55:40;;;;;;;19.33;12.98;;;;;;;14.10;100.00;95992.94;2049271;28;20063;-60
2023/08/18 03:56:41;;;;;;;18.73;12.07;;;;;;;14.11;100.00;95993.78;2049026;29;20062;-60
2023/08/18 03:57:42;;;;;;;18.02;13.27;;;;;;;14.10;100.00;95987.72;2056973;28;20059;-60
2023/08/18 03:58:43;;;;;;;19.58;13.18;;;;;;;14.08;100.00;95988.75;2056680;28;20059;-60
2023/08/18 03:59:45;;;;;;;16.10;13.02;;;;;;;14.07;100.00;95984.47;2057271;28;20059;-61
2023/08/18 04:00:46;;;;;;;14.25;12.57;;;;;;;14.01;100.00;95979.63;2064994;28;20482;-60
2023/08/18 04:01:47;;;;;;;18.55;13.13;;;;;;;14.00;100.00;95986.59;2065240;28;20069;-60
2023/08/18 04:02:48;;;;;;;16.77;12.98;;;;;;;13.94;100.00;95971.31;2057218;28;20058;-60
2023/08/18 04:03:50;;;;;;;15.50;13.43;;;;;;;14.02;100.00;95986.53;2057598;28;20054;-59
2023/08/18 04:04:52;;;;;;;17.73;12.60;;;;;;;13.99;100.00;95984.09;2064682;28;20066;-60
2023/08/18 04:05:53;;;;;;;16.30;12.02;;;;;;;14.01;100.00;95979.63;2065433;28;20062;-60
2023/08/18 04:06:54;;;;;;;19.98;13.20;;;;;;;13.99;100.00;95989.31;2056646;28;20055;-60
2023/08/18 04:07:55;;;;;;;18.05;12.77;;;;;;;13.95;100.00;95982.59;2057118;28;20063;-60
2023/08/18 04:09:06;;;;;;;16.13;12.93;;;;;;;13.99;100.00;95984.09;2064928;28;20379;-60
2023/08/18 04:10:07;;;;;;;16.92;12.95;;;;;;;14.00;100.00;95988.38;2056828;28;20050;-60
2023/08/18 04:11:10;;;;;;;19.05;13.15;;;;;;;14.00;100.00;95984.00;2049371;28;20054;-60
2023/08/18 04:12:12;;;;;;;16.85;12.82;;;;;;;13.99;100.00;95984.94;2056827;28;20051;-60
2023/08/18 04:13:13;;;;;;;17.58;13.38;;;;;;;13.87;100.00;95963.03;2065117;28;20050;-60
2023/08/18 04:14:16;;;;;;;15.55;13.07;;;;;;;13.99;100.00;95984.09;2065509;28;20050;-60
2023/08/18 04:15:18;;;;;;;15.63;13.07;;;;;;;14.03;100.00;95985.59;2065465;28;20406;-60
2023/08/18 04:16:19;;;;;;;17.75;13.35;;;;;;;14.04;100.00;95989.88;2057210;28;20046;-60
2023/08/18 04:17:20;;;;;;;18.63;13.07;;;;;;;14.01;100.00;95984.84;2049136;29;20066;-60
2023/08/18 04:18:22;;;;;;;16.25;12.73;;;;;;;14.00;100.00;95977.94;2057119;28;20077;-60
2023/08/18 04:19:23;;;;;;;18.90;13.20;;;;;;;13.97;100.00;95976.34;2065079;28;20065;-60
2023/08/18 04:20:24;;;;;;;16.85;13.13;;;;;;;14.01;100.00;95977.03;2057050;28;20059;-59
2023/08/18 04:21:26;;;;;;;15.60;13.52;;;;;;;14.02;100.00;95981.31;2057012;28;20058;-60
2023/08/18 04:22:28;;;;;;;17.00;12.73;;;;;;;14.06;100.00;95981.03;2049100;28;20047;-60
2023/08/18 04:23:30;;;;;;;15.85;12.30;;;;;;;14.08;100.00;95980.91;2057017;28;20438;-59
2023/08/18 04:24:31;;;;;;;16.50;13.77;;;;;;;14.09;100.00;95980.84;2056133;28;20435;-60
2023/08/18 04:25:32;;;;;;;17.13;12.45;;;;;;;14.12;100.00;95979.81;2049087;28;20055;-59
2023/08/18 04:26:36;;;;;;;14.30;11.13;;;;;;;14.12;100.00;95991.09;2056947;28;20063;-59
2023/08/18 04:27:37;;;;;;;17.15;11.80;;;;;;;14.11;100.00;95985.94;2057026;28;20055;-59
2023/08/18 04:28:38;;;;;;;19.58;12.85;;;;;;;14.05;100.00;95978.50;2057109;28;20515;-59
2023/08/18 04:29:39;;;;;;;17.02;12.10;;;;;;;14.07;100.00;95989.69;2057058;28;20059;-60
2023/08/18 04:30:43;;;;;;;15.48;11.68;;;;;;;14.06;100.00;95991.47;2049176;28;20070;-60
2023/08/18 04:31:50;;;;;;;17.67;11.73;;;;;;;14.07;100.00;95998.38;2050497;28;20077;-60
2023/08/18 04:32:53;;;;;;;16.63;12.75;;;;;;;14.08;100.00;95993.97;2056465;28;20051;-60
2023/08/18 04:33:55;;;;;;;17.00;12.27;;;;;;;14.09;100.00;95993.06;2057075;28;20059;-60
2023/08/18 04:34:56;;;;;;;15.23;11.73;;;;;;;14.15;100.00;95990.06;2056967;28;20054;-60
2023/08/18 04:35:57;;;;;;;12.80;11.48;;;;;;;14.16;100.00;95991.72;2057035;28;20055;-60
2023/08/18 04:36:58;;;;;;;14.95;11.85;;;;;;;14.20;100.00;95992.41;2056802;28;20130;-60
2023/08/18 04:37:59;;;;;;;17.02;11.95;;;;;;;14.20;100.00;95990.63;2065138;28;20053;-60
2023/08/18 04:39:01;;;;;;;16.35;11.77;;;;;;;14.20;100.00;95998.47;2064844;28;20542;-60
2023/08/18 04:40:06;;;;;;;17.55;12.60;;;;;;;14.22;100.00;95998.34;2065030;28;20050;-60
2023/08/18 04:41:09;;;;;;;15.10;11.27;;;;;;;14.22;100.00;95991.38;2056828;28;20046;-60
2023/08/18 04:42:10;;;;;;;15.75;12.38;;;;;;;14.22;100.00;96007.03;2049231;28;20059;-60
2023/08/18 04:43:11;;;;;;;13.63;9.02;;;;;;;14.21;100.00;95997.50;2048671;29;20055;-60